createdAt,value
2019-04-03T00:00:55.691Z,999.79
2019-04-03T00:01:55.691Z,999.77
2019-04-03T00:02:55.703Z,999.80
2019-04-03T00:03:55.658Z,999.81
2019-04-03T00:04:55.700Z,999.79
2019-04-03T00:05:55.651Z,999.73
2019-04-03T00:06:55.709Z,999.71
2019-04-03T00:07:55.620Z,999.78
2019-04-03T00:08:55.724Z,999.81
2019-04-03T00:09:55.593Z,999.83
2019-04-03T00:10:55.613Z,999.93
2019-04-03T00:11:55.596Z,999.95
2019-04-03T00:12:55.574Z,999.92
2019-04-03T00:13:55.560Z,999.96
2019-04-03T00:14:55.558Z,999.94
2019-04-03T00:15:55.532Z,999.95
2019-04-03T00:16:55.562Z,999.93
2019-04-03T00:17:55.518Z,999.95
2019-04-03T00:18:55.515Z,999.96
2019-04-03T00:19:55.486Z,999.96
2019-04-03T00:20:55.494Z,999.95
2019-04-03T00:21:55.469Z,999.96
2019-04-03T00:22:55.495Z,999.99
2019-04-03T00:23:55.456Z,999.98
2019-04-03T00:24:55.535Z,1000.01
2019-04-03T00:25:55.424Z,999.98
2019-04-03T00:26:55.428Z,1000.00
2019-04-03T00:27:55.405Z,999.97
2019-04-03T00:28:55.418Z,999.99
2019-04-03T00:29:56.163Z,999.97
2019-04-03T00:30:55.416Z,999.96
2019-04-03T00:31:55.376Z,999.94
2019-04-03T00:32:55.645Z,999.95
2019-04-03T00:33:55.518Z,999.98
2019-04-03T00:34:55.362Z,999.97
2019-04-03T00:35:55.328Z,999.93
2019-04-03T00:36:55.373Z,999.93
2019-04-03T00:37:55.314Z,999.91
2019-04-03T00:38:55.400Z,999.92
2019-04-03T00:39:55.307Z,999.97
2019-04-03T00:40:55.265Z,999.98
2019-04-03T00:41:55.389Z,999.90
2019-04-03T00:42:55.258Z,999.87
2019-04-03T00:43:55.232Z,999.87
2019-04-03T00:44:55.235Z,999.82
2019-04-03T00:45:55.404Z,999.84
2019-04-03T00:46:56.073Z,999.85
2019-04-03T00:47:55.777Z,999.82
2019-04-03T00:48:55.653Z,999.87
2019-04-03T00:49:57.001Z,999.87
2019-04-03T00:50:57.294Z,999.85
2019-04-03T00:51:57.128Z,999.86
2019-04-03T00:52:57.068Z,999.83
2019-04-03T00:53:57.209Z,999.84
2019-04-03T00:54:56.575Z,999.84
2019-04-03T00:55:56.535Z,999.90
2019-04-03T00:56:56.492Z,999.80
2019-04-03T00:57:56.430Z,999.84
2019-04-03T00:58:55.727Z,999.90
2019-04-03T00:59:56.495Z,999.92
2019-04-03T01:00:56.323Z,999.88
2019-04-03T01:01:56.480Z,999.90
2019-04-03T01:02:55.074Z,999.92
2019-04-03T01:03:55.044Z,999.91
2019-04-03T01:04:54.999Z,999.91
2019-04-03T01:05:55.018Z,999.90
2019-04-03T01:06:55.044Z,999.91
2019-04-03T01:07:55.228Z,999.90
2019-04-03T01:08:55.114Z,999.88
2019-04-03T01:09:54.962Z,999.91
2019-04-03T01:10:55.664Z,999.93
2019-04-03T01:11:54.959Z,999.88
2019-04-03T01:12:55.009Z,999.91
2019-04-03T01:13:55.036Z,999.87
2019-04-03T01:14:54.967Z,999.93
2019-04-03T01:15:54.884Z,999.89
2019-04-03T01:16:54.921Z,999.87
2019-04-03T01:17:54.859Z,999.85
2019-04-03T01:18:54.888Z,999.85
2019-04-03T01:19:54.872Z,999.82
2019-04-03T01:20:54.835Z,999.87
2019-04-03T01:21:54.826Z,999.82
2019-04-03T01:22:54.938Z,999.84
2019-04-03T01:23:54.820Z,999.76
2019-04-03T01:24:54.808Z,999.75
2019-04-03T01:25:54.838Z,999.73
2019-04-03T01:26:54.778Z,999.79
2019-04-03T01:27:54.827Z,999.76
2019-04-03T01:28:54.785Z,999.79
2019-04-03T01:29:54.925Z,999.78
2019-04-03T01:30:54.774Z,999.76
2019-04-03T01:31:54.713Z,999.76
2019-04-03T01:32:54.742Z,999.72
2019-04-03T01:33:54.713Z,999.73
2019-04-03T01:34:54.823Z,999.78
2019-04-03T01:35:54.797Z,999.75
2019-04-03T01:36:54.667Z,999.76
2019-04-03T01:37:54.645Z,999.79
2019-04-03T01:38:54.707Z,999.80
2019-04-03T01:39:54.624Z,999.74
2019-04-03T01:40:54.759Z,999.73
2019-04-03T01:41:54.739Z,999.76
2019-04-03T01:42:54.664Z,999.77
2019-04-03T01:43:54.583Z,999.76
2019-04-03T01:44:55.463Z,999.77
2019-04-03T01:45:56.613Z,999.76
2019-04-03T01:46:57.336Z,999.76
2019-04-03T01:47:57.437Z,999.77
2019-04-03T01:48:54.568Z,999.83
2019-04-03T01:49:54.519Z,999.84
2019-04-03T01:50:54.506Z,999.83
2019-04-03T01:51:54.517Z,999.90
2019-04-03T01:52:54.486Z,999.91
2019-04-03T01:53:54.499Z,999.91
2019-04-03T01:54:54.459Z,999.94
2019-04-03T01:55:54.455Z,999.90
2019-04-03T01:56:54.634Z,999.93
2019-04-03T01:57:54.459Z,999.89
2019-04-03T01:58:54.423Z,999.95
2019-04-03T01:59:54.458Z,999.92
2019-04-03T02:00:54.550Z,999.95
2019-04-03T02:01:54.425Z,999.96
2019-04-03T02:02:54.378Z,1000.00
2019-04-03T02:03:54.416Z,999.97
2019-04-03T02:04:54.374Z,999.94
2019-04-03T02:05:54.352Z,999.93
2019-04-03T02:06:54.369Z,999.94
2019-04-03T02:07:54.337Z,999.96
2019-04-03T02:08:54.343Z,999.94
2019-04-03T02:09:54.402Z,999.96
2019-04-03T02:10:54.309Z,999.89
2019-04-03T02:11:54.274Z,999.85
2019-04-03T02:12:54.317Z,999.81
2019-04-03T02:13:54.268Z,999.82
2019-04-03T02:14:54.287Z,999.84
2019-04-03T02:15:54.239Z,999.76
2019-04-03T02:16:54.242Z,999.79
2019-04-03T02:17:54.989Z,999.77
2019-04-03T02:18:55.373Z,999.80
2019-04-03T02:19:55.933Z,999.80
2019-04-03T02:20:54.231Z,999.89
2019-04-03T02:21:54.181Z,999.86
2019-04-03T02:22:54.346Z,999.84
2019-04-03T02:23:54.151Z,999.83
2019-04-03T02:24:54.154Z,999.86
2019-04-03T02:25:54.141Z,999.84
2019-04-03T02:26:54.179Z,999.84
2019-04-03T02:27:54.136Z,999.91
2019-04-03T02:28:54.190Z,999.87
2019-04-03T02:29:54.085Z,999.87
2019-04-03T02:30:54.093Z,999.84
2019-04-03T02:31:54.071Z,999.89
2019-04-03T02:32:56.675Z,999.85
2019-04-03T02:33:54.054Z,999.88
2019-04-03T02:34:54.041Z,999.89
2019-04-03T02:35:54.029Z,999.90
2019-04-03T02:36:54.019Z,999.86
2019-04-03T02:37:54.065Z,999.85
2019-04-03T02:38:54.864Z,999.85
2019-04-03T02:39:54.045Z,999.83
2019-04-03T02:40:53.965Z,999.86
2019-04-03T02:41:54.036Z,999.84
2019-04-03T02:42:53.978Z,999.92
2019-04-03T02:43:53.975Z,999.88
2019-04-03T02:44:54.168Z,999.87
2019-04-03T02:45:56.357Z,999.86
2019-04-03T02:46:53.900Z,999.89
2019-04-03T02:47:53.912Z,999.90
2019-04-03T02:48:53.894Z,999.92
2019-04-03T02:49:53.924Z,999.92
2019-04-03T02:50:53.873Z,999.93
2019-04-03T02:51:53.948Z,999.96
2019-04-03T02:52:56.945Z,999.95
2019-04-03T02:53:53.860Z,999.93
2019-04-03T02:54:54.011Z,999.95
2019-04-03T02:55:53.873Z,999.91
2019-04-03T02:56:53.809Z,999.97
2019-04-03T02:57:54.079Z,999.97
2019-04-03T02:58:54.963Z,999.94
2019-04-03T02:59:58.259Z,999.99
2019-04-03T03:00:54.772Z,999.93
2019-04-03T03:01:53.807Z,999.96
2019-04-03T03:02:53.739Z,999.94
2019-04-03T03:03:53.734Z,999.94
2019-04-03T03:04:55.030Z,999.91
2019-04-03T03:05:53.783Z,999.94
2019-04-03T03:06:53.721Z,999.89
2019-04-03T03:07:53.679Z,999.89
2019-04-03T03:08:53.667Z,999.90
2019-04-03T03:09:53.661Z,999.87
2019-04-03T03:10:53.686Z,999.84
2019-04-03T03:11:55.985Z,999.84
2019-04-03T03:12:53.688Z,999.83
2019-04-03T03:13:53.609Z,999.89
2019-04-03T03:14:53.602Z,999.91
2019-04-03T03:15:53.605Z,999.92
2019-04-03T03:16:53.581Z,999.94
2019-04-03T03:17:55.114Z,999.92
2019-04-03T03:18:53.603Z,999.95
2019-04-03T03:19:53.641Z,999.87
2019-04-03T03:20:53.552Z,999.86
2019-04-03T03:21:53.754Z,999.88
2019-04-03T03:22:53.553Z,999.88
2019-04-03T03:23:56.237Z,999.90
2019-04-03T03:24:53.508Z,999.87
2019-04-03T03:25:53.480Z,999.87
2019-04-03T03:26:53.671Z,999.89
2019-04-03T03:27:53.473Z,999.88
2019-04-03T03:28:53.484Z,999.87
2019-04-03T03:29:53.460Z,999.90
2019-04-03T03:31:01.127Z,999.90
2019-04-03T03:32:08.096Z,999.85
2019-04-03T03:33:09.958Z,999.83
2019-04-03T03:34:00.490Z,999.86
2019-04-03T03:35:06.319Z,999.89
2019-04-03T03:35:55.058Z,999.86
2019-04-03T03:36:59.204Z,999.87
2019-04-03T03:37:54.373Z,999.80
2019-04-03T03:38:53.350Z,999.80
2019-04-03T03:39:53.357Z,999.82
2019-04-03T03:40:53.332Z,999.78
2019-04-03T03:41:55.983Z,999.87
2019-04-03T03:42:53.613Z,999.85
2019-04-03T03:43:53.419Z,999.85
2019-04-03T03:44:53.282Z,999.80
2019-04-03T03:45:54.076Z,999.84
2019-04-03T03:46:53.261Z,999.84
2019-04-03T03:47:53.415Z,999.81
2019-04-03T03:48:53.262Z,999.81
2019-04-03T03:49:53.221Z,999.79
2019-04-03T03:50:55.694Z,999.82
2019-04-03T03:51:53.218Z,999.82
2019-04-03T03:52:53.190Z,999.78
2019-04-03T03:53:53.218Z,999.83
2019-04-03T03:54:53.189Z,999.83
2019-04-03T03:55:57.495Z,999.80
2019-04-03T03:56:53.215Z,999.86
2019-04-03T03:57:53.146Z,999.82
2019-04-03T03:58:53.261Z,999.82
2019-04-03T03:59:53.119Z,999.84
2019-04-03T04:00:55.368Z,999.78
2019-04-03T04:01:53.120Z,999.81
2019-04-03T04:02:53.158Z,999.85
2019-04-03T04:03:53.099Z,999.84
2019-04-03T04:04:53.077Z,999.85
2019-04-03T04:05:55.578Z,999.87
2019-04-03T04:06:53.068Z,999.83
2019-04-03T04:07:53.511Z,999.89
2019-04-03T04:08:53.052Z,999.81
2019-04-03T04:09:53.237Z,999.83
2019-04-03T04:10:53.343Z,999.80
2019-04-03T04:11:53.159Z,999.81
2019-04-03T04:12:53.002Z,999.79
2019-04-03T04:13:52.962Z,999.86
2019-04-03T04:14:56.146Z,999.84
2019-04-03T04:15:52.947Z,999.85
2019-04-03T04:16:52.938Z,999.81
2019-04-03T04:17:52.923Z,999.84
2019-04-03T04:18:55.618Z,999.80
2019-04-03T04:19:52.988Z,999.80
2019-04-03T04:20:52.961Z,999.76
2019-04-03T04:21:52.879Z,999.74
2019-04-03T04:22:53.116Z,999.72
2019-04-03T04:23:53.144Z,999.71
2019-04-03T04:24:53.107Z,999.62
2019-04-03T04:25:52.868Z,999.63
2019-04-03T04:26:52.964Z,999.60
2019-04-03T04:27:52.838Z,999.63
2019-04-03T04:28:52.808Z,999.63
2019-04-03T04:29:52.790Z,999.68
2019-04-03T04:30:52.782Z,999.64
2019-04-03T04:31:52.829Z,999.63
2019-04-03T04:32:52.784Z,999.63
2019-04-03T04:33:52.955Z,999.68
2019-04-03T04:34:52.735Z,999.66
2019-04-03T04:35:53.251Z,999.64
2019-04-03T04:36:54.786Z,999.59
2019-04-03T04:37:55.263Z,999.64
2019-04-03T04:38:52.968Z,999.70
2019-04-03T04:39:52.684Z,999.75
2019-04-03T04:40:52.669Z,999.72
2019-04-03T04:41:52.671Z,999.72
2019-04-03T04:42:52.701Z,999.77
2019-04-03T04:43:52.655Z,999.77
2019-04-03T04:44:52.718Z,999.77
2019-04-03T04:45:52.625Z,999.76
2019-04-03T04:46:52.622Z,999.77
2019-04-03T04:47:52.616Z,999.75
2019-04-03T04:48:52.617Z,999.76
2019-04-03T04:49:53.703Z,999.76
2019-04-03T04:50:54.336Z,999.75
2019-04-03T04:51:52.595Z,999.80
2019-04-03T04:52:52.550Z,999.80
2019-04-03T04:53:52.534Z,999.78
2019-04-03T04:54:52.681Z,999.79
2019-04-03T04:55:52.517Z,999.80
2019-04-03T04:56:52.497Z,999.83
2019-04-03T04:57:52.493Z,999.84
2019-04-03T04:58:52.563Z,999.84
2019-04-03T04:59:52.476Z,999.84
2019-04-03T05:00:53.460Z,999.78
2019-04-03T05:01:52.687Z,999.82
2019-04-03T05:02:52.446Z,999.83
2019-04-03T05:03:53.909Z,999.87
2019-04-03T05:04:55.284Z,999.85
2019-04-03T05:05:52.417Z,999.86
2019-04-03T05:06:52.428Z,999.90
2019-04-03T05:07:52.456Z,999.89
2019-04-03T05:08:52.477Z,999.94
2019-04-03T05:09:52.510Z,999.94
2019-04-03T05:10:52.366Z,999.99
2019-04-03T05:11:52.430Z,1000.01
2019-04-03T05:12:52.367Z,1000.01
2019-04-03T05:13:52.316Z,1000.05
2019-04-03T05:14:52.303Z,999.97
2019-04-03T05:15:54.156Z,999.98
2019-04-03T05:16:52.285Z,1000.00
2019-04-03T05:17:52.312Z,1000.05
2019-04-03T05:18:52.265Z,1000.03
2019-04-03T05:19:52.282Z,1000.01
2019-04-03T05:20:52.240Z,999.95
2019-04-03T05:21:53.154Z,1000.01
2019-04-03T05:22:53.105Z,999.99
2019-04-03T05:23:52.250Z,999.99
2019-04-03T05:24:52.211Z,999.96
2019-04-03T05:25:52.259Z,999.95
2019-04-03T05:26:52.176Z,999.91
2019-04-03T05:27:52.163Z,999.95
2019-04-03T05:28:57.033Z,999.95
2019-04-03T05:29:53.205Z,999.98
2019-04-03T05:30:52.201Z,1000.02
2019-04-03T05:31:52.127Z,1000.02
2019-04-03T05:32:52.113Z,1000.02
2019-04-03T05:33:52.106Z,1000.05
2019-04-03T05:34:52.098Z,1000.05
2019-04-03T05:35:52.141Z,1000.02
2019-04-03T05:36:52.086Z,1000.01
2019-04-03T05:37:52.203Z,1000.02
2019-04-03T05:38:53.492Z,1000.10
2019-04-03T05:39:54.736Z,1000.09
2019-04-03T05:40:52.038Z,1000.11
2019-04-03T05:41:52.072Z,1000.10
2019-04-03T05:42:52.032Z,1000.10
2019-04-03T05:43:51.994Z,1000.10
2019-04-03T05:44:51.983Z,1000.13
2019-04-03T05:45:51.973Z,1000.13
2019-04-03T05:46:52.101Z,1000.10
2019-04-03T05:47:52.178Z,1000.10
2019-04-03T05:48:52.278Z,1000.14
2019-04-03T05:49:55.455Z,1000.14
2019-04-03T05:50:51.967Z,1000.14
2019-04-03T05:51:51.912Z,1000.19
2019-04-03T05:52:51.943Z,1000.19
2019-04-03T05:53:53.800Z,1000.24
2019-04-03T05:54:51.913Z,1000.29
2019-04-03T05:55:51.862Z,1000.22
2019-04-03T05:56:52.176Z,1000.26
2019-04-03T05:57:51.847Z,1000.31
2019-04-03T05:58:55.938Z,1000.32
2019-04-03T05:59:59.488Z,1000.30
2019-04-03T06:01:03.208Z,1000.37
2019-04-03T06:01:52.869Z,1000.36
2019-04-03T06:02:53.140Z,1000.33
2019-04-03T06:03:51.786Z,1000.34
2019-04-03T06:04:51.875Z,1000.34
2019-04-03T06:05:51.949Z,1000.35
2019-04-03T06:06:51.766Z,1000.33
2019-04-03T06:07:51.800Z,1000.39
2019-04-03T06:08:51.992Z,1000.38
2019-04-03T06:09:51.912Z,1000.42
2019-04-03T06:10:51.899Z,1000.44
2019-04-03T06:11:52.739Z,1000.41
2019-04-03T06:12:51.793Z,1000.43
2019-04-03T06:13:51.819Z,1000.44
2019-04-03T06:14:51.821Z,1000.36
2019-04-03T06:15:53.232Z,1000.34
2019-04-03T06:16:51.653Z,1000.39
2019-04-03T06:17:54.658Z,1000.35
2019-04-03T06:18:51.648Z,1000.36
2019-04-03T06:19:51.606Z,1000.40
2019-04-03T06:20:51.733Z,1000.43
2019-04-03T06:21:51.665Z,1000.41
2019-04-03T06:22:51.570Z,1000.45
2019-04-03T06:23:52.714Z,1000.42
2019-04-03T06:24:51.584Z,1000.44
2019-04-03T06:25:51.536Z,1000.43
2019-04-03T06:26:51.672Z,1000.41
2019-04-03T06:27:51.629Z,1000.43
2019-04-03T06:28:51.766Z,1000.43
2019-04-03T06:29:54.795Z,1000.38
2019-04-03T06:30:51.650Z,1000.41
2019-04-03T06:31:51.564Z,1000.40
2019-04-03T06:32:54.416Z,1000.41
2019-04-03T06:33:51.883Z,1000.41
2019-04-03T06:34:51.464Z,1000.40
2019-04-03T06:35:51.435Z,1000.42
2019-04-03T06:36:51.635Z,1000.39
2019-04-03T06:37:53.140Z,1000.37
2019-04-03T06:38:51.413Z,1000.40
2019-04-03T06:39:51.405Z,1000.35
2019-04-03T06:40:51.399Z,1000.39
2019-04-03T06:41:51.373Z,1000.40
2019-04-03T06:42:51.356Z,1000.37
2019-04-03T06:43:53.991Z,1000.42
2019-04-03T06:44:53.836Z,1000.36
2019-04-03T06:45:51.614Z,1000.37
2019-04-03T06:46:53.920Z,1000.45
2019-04-03T06:47:51.301Z,1000.44
2019-04-03T06:48:51.526Z,1000.42
2019-04-03T06:49:51.306Z,1000.43
2019-04-03T06:50:51.316Z,1000.44
2019-04-03T06:51:51.289Z,1000.43
2019-04-03T06:52:53.042Z,1000.47
2019-04-03T06:53:51.489Z,1000.45
2019-04-03T06:54:51.241Z,1000.47
2019-04-03T06:55:51.234Z,1000.43
2019-04-03T06:56:52.713Z,1000.49
2019-04-03T06:57:51.204Z,1000.48
2019-04-03T06:58:51.238Z,1000.48
2019-04-03T06:59:51.242Z,1000.52
2019-04-03T07:00:54.190Z,1000.57
2019-04-03T07:01:52.915Z,1000.62
2019-04-03T07:02:51.144Z,1000.62
2019-04-03T07:03:51.342Z,1000.62
2019-04-03T07:04:51.305Z,1000.62
2019-04-03T07:05:51.154Z,1000.60
2019-04-03T07:06:51.096Z,1000.61
2019-04-03T07:07:51.139Z,1000.62
2019-04-03T07:08:51.221Z,1000.62
2019-04-03T07:09:51.312Z,1000.60
2019-04-03T07:10:54.916Z,1000.60
2019-04-03T07:11:51.046Z,1000.59
2019-04-03T07:12:51.040Z,1000.57
2019-04-03T07:13:53.173Z,1000.61
2019-04-03T07:14:51.058Z,1000.57
2019-04-03T07:15:51.035Z,1000.59
2019-04-03T07:16:51.025Z,1000.59
2019-04-03T07:17:50.982Z,1000.59
2019-04-03T07:18:51.294Z,1000.60
2019-04-03T07:19:50.986Z,1000.59
2019-04-03T07:20:52.195Z,1000.57
2019-04-03T07:21:51.178Z,1000.58
2019-04-03T07:22:50.948Z,1000.52
2019-04-03T07:23:51.195Z,1000.59
2019-04-03T07:24:50.910Z,1000.58
2019-04-03T07:25:51.067Z,1000.58
2019-04-03T07:26:50.884Z,1000.63
2019-04-03T07:27:50.883Z,1000.63
2019-04-03T07:28:50.868Z,1000.66
2019-04-03T07:29:50.896Z,1000.74
2019-04-03T07:30:53.595Z,1000.73
2019-04-03T07:31:50.863Z,1000.68
2019-04-03T07:32:50.823Z,1000.70
2019-04-03T07:33:50.810Z,1000.69
2019-04-03T07:34:50.794Z,1000.72
2019-04-03T07:35:50.790Z,1000.73
2019-04-03T07:36:50.914Z,1000.73
2019-04-03T07:37:51.493Z,1000.72
2019-04-03T07:38:50.973Z,1000.72
2019-04-03T07:39:50.750Z,1000.75
2019-04-03T07:40:51.788Z,1000.70
2019-04-03T07:41:53.539Z,1000.72
2019-04-03T07:42:50.710Z,1000.74
2019-04-03T07:43:50.811Z,1000.77
2019-04-03T07:44:50.707Z,1000.76
2019-04-03T07:45:50.680Z,1000.76
2019-04-03T07:46:50.667Z,1000.77
2019-04-03T07:47:50.669Z,1000.84
2019-04-03T07:48:50.657Z,1000.83
2019-04-03T07:49:51.016Z,1000.82
2019-04-03T07:50:50.814Z,1000.89
2019-04-03T07:51:50.828Z,1000.86
2019-04-03T07:52:50.749Z,1000.87
2019-04-03T07:53:51.610Z,1000.94
2019-04-03T07:54:52.416Z,1000.92
2019-04-03T07:55:50.623Z,1000.91
2019-04-03T07:56:50.885Z,1000.94
2019-04-03T07:57:50.665Z,1000.93
2019-04-03T07:58:50.532Z,1000.91
2019-04-03T07:59:50.851Z,1000.92
2019-04-03T08:00:50.552Z,1000.83
2019-04-03T08:01:50.571Z,1000.84
2019-04-03T08:02:50.545Z,1000.81
2019-04-03T08:03:52.446Z,1000.81
2019-04-03T08:04:50.590Z,1000.82
2019-04-03T08:05:50.456Z,1000.85
2019-04-03T08:06:50.479Z,1000.85
2019-04-03T08:07:50.658Z,1000.84
2019-04-03T08:08:52.897Z,1000.87
2019-04-03T08:09:51.417Z,1000.89
2019-04-03T08:10:50.446Z,1000.89
2019-04-03T08:11:50.424Z,1000.93
2019-04-03T08:12:50.385Z,1000.93
2019-04-03T08:13:50.379Z,1000.95
2019-04-03T08:14:50.380Z,1000.93
2019-04-03T08:15:50.464Z,1000.90
2019-04-03T08:16:50.421Z,1000.90
2019-04-03T08:17:50.873Z,1000.94
2019-04-03T08:18:51.819Z,1000.94
2019-04-03T08:19:50.395Z,1000.91
2019-04-03T08:20:50.328Z,1000.94
2019-04-03T08:21:50.316Z,1000.96
2019-04-03T08:22:50.514Z,1000.98
2019-04-03T08:23:50.301Z,1000.98
2019-04-03T08:24:53.067Z,1001.00
2019-04-03T08:25:53.695Z,1001.01
2019-04-03T08:26:51.606Z,1001.01
2019-04-03T08:27:50.499Z,1001.00
2019-04-03T08:28:50.214Z,1001.05
2019-04-03T08:29:50.219Z,1001.03
2019-04-03T08:30:50.219Z,1001.03
2019-04-03T08:31:50.502Z,1001.02
2019-04-03T08:32:50.440Z,1001.05
2019-04-03T08:33:50.195Z,1001.02
2019-04-03T08:34:50.142Z,1000.99
2019-04-03T08:35:50.159Z,1000.95
2019-04-03T08:36:50.121Z,1001.01
2019-04-03T08:37:50.155Z,1000.99
2019-04-03T08:38:50.126Z,1001.02
2019-04-03T08:39:50.302Z,1001.02
2019-04-03T08:40:52.376Z,1001.06
2019-04-03T08:41:50.092Z,1001.07
2019-04-03T08:42:50.123Z,1001.06
2019-04-03T08:43:50.068Z,1001.04
2019-04-03T08:44:50.057Z,1001.07
2019-04-03T08:45:50.024Z,1001.07
2019-04-03T08:46:50.068Z,1001.06
2019-04-03T08:47:50.109Z,1001.07
2019-04-03T08:48:50.066Z,1001.01
2019-04-03T08:49:50.119Z,1001.01
2019-04-03T08:50:50.016Z,1001.02
2019-04-03T08:51:50.306Z,1001.01
2019-04-03T08:52:50.044Z,1000.95
2019-04-03T08:53:49.969Z,1000.98
2019-04-03T08:54:50.332Z,1000.96
2019-04-03T08:55:49.920Z,1000.98
2019-04-03T08:56:49.993Z,1000.95
2019-04-03T08:57:52.221Z,1000.95
2019-04-03T08:58:49.906Z,1000.97
2019-04-03T08:59:49.873Z,1000.95
2019-04-03T09:00:50.722Z,1000.96
2019-04-03T09:01:49.850Z,1000.94
2019-04-03T09:02:50.184Z,1000.96
2019-04-03T09:03:49.841Z,1000.97
2019-04-03T09:04:49.905Z,1000.91
2019-04-03T09:05:50.869Z,1000.95
2019-04-03T09:06:49.920Z,1000.94
2019-04-03T09:07:49.809Z,1000.90
2019-04-03T09:08:49.774Z,1000.91
2019-04-03T09:09:49.770Z,1000.92
2019-04-03T09:10:49.795Z,1000.90
2019-04-03T09:11:49.741Z,1000.96
2019-04-03T09:12:49.741Z,1000.91
2019-04-03T09:13:49.724Z,1000.93
2019-04-03T09:14:49.814Z,1000.94
2019-04-03T09:15:50.015Z,1000.93
2019-04-03T09:16:49.710Z,1000.94
2019-04-03T09:17:49.677Z,1000.96
2019-04-03T09:18:49.895Z,1000.99
2019-04-03T09:19:49.733Z,1000.99
2019-04-03T09:20:49.641Z,1000.98
2019-04-03T09:21:51.118Z,1000.98
2019-04-03T09:22:51.333Z,1001.02
2019-04-03T09:23:49.623Z,1001.00
2019-04-03T09:24:49.903Z,1000.97
2019-04-03T09:25:49.617Z,1000.97
2019-04-03T09:26:49.574Z,1000.98
2019-04-03T09:27:49.581Z,1000.99
2019-04-03T09:28:49.579Z,1000.94
2019-04-03T09:29:49.706Z,1000.98
2019-04-03T09:30:49.677Z,1001.01
2019-04-03T09:31:51.477Z,1001.03
2019-04-03T09:32:49.754Z,1001.04
2019-04-03T09:33:49.584Z,1001.06
2019-04-03T09:34:49.498Z,1001.02
2019-04-03T09:35:49.485Z,1000.98
2019-04-03T09:36:49.859Z,1000.98
2019-04-03T09:37:49.466Z,1000.94
2019-04-03T09:38:49.457Z,1000.94
2019-04-03T09:39:49.505Z,1000.96
2019-04-03T09:40:49.622Z,1001.03
2019-04-03T09:41:50.888Z,1001.01
2019-04-03T09:42:49.800Z,1000.98
2019-04-03T09:43:49.436Z,1000.96
2019-04-03T09:44:49.740Z,1000.99
2019-04-03T09:45:49.422Z,1000.95
2019-04-03T09:46:49.720Z,1001.01
2019-04-03T09:47:49.362Z,1001.00
2019-04-03T09:48:49.348Z,1000.96
2019-04-03T09:49:49.867Z,1001.02
2019-04-03T09:50:49.324Z,1001.02
2019-04-03T09:51:50.040Z,1001.02
2019-04-03T09:52:50.619Z,1001.06
2019-04-03T09:53:49.309Z,1001.00
2019-04-03T09:54:49.589Z,1001.03
2019-04-03T09:55:49.272Z,1000.99
2019-04-03T09:56:59.790Z,1001.01
2019-04-03T09:57:52.812Z,1000.99
2019-04-03T09:58:49.549Z,1001.01
2019-04-03T09:59:49.260Z,1001.05
2019-04-03T10:00:49.220Z,1001.03
2019-04-03T10:01:49.375Z,1001.01
2019-04-03T10:02:51.529Z,1001.02
2019-04-03T10:03:49.279Z,1001.02
2019-04-03T10:04:49.190Z,1001.02
2019-04-03T10:05:49.532Z,1001.05
2019-04-03T10:06:49.176Z,1001.02
2019-04-03T10:07:49.353Z,1001.01
2019-04-03T10:08:49.210Z,1001.02
2019-04-03T10:09:49.434Z,1000.95
2019-04-03T10:10:49.124Z,1000.98
2019-04-03T10:11:51.503Z,1000.97
2019-04-03T10:12:49.129Z,1000.98
2019-04-03T10:13:49.073Z,1000.95
2019-04-03T10:14:49.378Z,1000.95
2019-04-03T10:15:49.103Z,1000.93
2019-04-03T10:16:49.050Z,1000.92
2019-04-03T10:17:49.034Z,1000.95
2019-04-03T10:18:49.239Z,1000.94
2019-04-03T10:19:49.046Z,1000.90
2019-04-03T10:20:49.739Z,1000.93
2019-04-03T10:21:52.143Z,1000.94
2019-04-03T10:22:48.991Z,1000.92
2019-04-03T10:23:48.979Z,1000.87
2019-04-03T10:24:48.973Z,1000.87
2019-04-03T10:25:49.095Z,1000.86
2019-04-03T10:26:49.479Z,1000.83
2019-04-03T10:27:48.965Z,1000.81
2019-04-03T10:28:49.105Z,1000.79
2019-04-03T10:29:50.238Z,1000.78
2019-04-03T10:30:52.463Z,1000.78
2019-04-03T10:31:48.875Z,1000.80
2019-04-03T10:32:48.967Z,1000.78
2019-04-03T10:33:48.899Z,1000.79
2019-04-03T10:34:48.984Z,1000.79
2019-04-03T10:35:48.996Z,1000.73
2019-04-03T10:36:48.827Z,1000.77
2019-04-03T10:37:48.830Z,1000.77
2019-04-03T10:38:49.557Z,1000.77
2019-04-03T10:39:52.206Z,1000.77
2019-04-03T10:40:48.800Z,1000.76
2019-04-03T10:41:48.805Z,1000.74
2019-04-03T10:42:48.900Z,1000.73
2019-04-03T10:43:48.758Z,1000.76
2019-04-03T10:44:48.739Z,1000.64
2019-04-03T10:45:48.781Z,1000.65
2019-04-03T10:46:49.948Z,1000.67
2019-04-03T10:47:48.986Z,1000.67
2019-04-03T10:48:48.754Z,1000.61
2019-04-03T10:49:48.696Z,1000.65
2019-04-03T10:50:48.719Z,1000.62
2019-04-03T10:51:48.709Z,1000.61
2019-04-03T10:52:49.314Z,1000.57
2019-04-03T10:53:50.409Z,1000.59
2019-04-03T10:54:48.676Z,1000.58
2019-04-03T10:55:48.619Z,1000.58
2019-04-03T10:56:48.634Z,1000.55
2019-04-03T10:57:48.602Z,1000.55
2019-04-03T10:58:50.419Z,1000.59
2019-04-03T10:59:53.168Z,1000.54
2019-04-03T11:00:49.571Z,1000.59
2019-04-03T11:01:48.564Z,1000.56
2019-04-03T11:02:48.715Z,1000.55
2019-04-03T11:03:48.672Z,1000.53
2019-04-03T11:04:48.589Z,1000.57
2019-04-03T11:05:48.578Z,1000.56
2019-04-03T11:06:48.499Z,1000.55
2019-04-03T11:07:48.521Z,1000.52
2019-04-03T11:08:48.905Z,1000.50
2019-04-03T11:09:48.467Z,1000.51
2019-04-03T11:10:48.611Z,1000.47
2019-04-03T11:11:48.586Z,1000.51
2019-04-03T11:12:48.672Z,1000.49
2019-04-03T11:13:48.550Z,1000.45
2019-04-03T11:14:48.439Z,1000.50
2019-04-03T11:15:48.438Z,1000.46
2019-04-03T11:16:48.391Z,1000.41
2019-04-03T11:17:49.450Z,1000.41
2019-04-03T11:18:58.586Z,1000.42
2019-04-03T11:19:49.582Z,1000.26
2019-04-03T11:20:48.355Z,1000.41
2019-04-03T11:21:48.608Z,1000.40
2019-04-03T11:22:49.046Z,1000.45
2019-04-03T11:23:48.355Z,1000.44
2019-04-03T11:24:48.645Z,1000.43
2019-04-03T11:25:48.358Z,1000.40
2019-04-03T11:26:50.807Z,1000.43
2019-04-03T11:27:48.545Z,1000.40
2019-04-03T11:28:48.400Z,1000.37
2019-04-03T11:29:48.421Z,1000.31
2019-04-03T11:30:49.573Z,1000.32
2019-04-03T11:31:48.651Z,1000.24
2019-04-03T11:32:48.283Z,1000.27
2019-04-03T11:33:50.421Z,1000.17
2019-04-03T11:34:49.343Z,1000.21
2019-04-03T11:35:48.187Z,1000.20
2019-04-03T11:36:48.242Z,1000.14
2019-04-03T11:37:48.478Z,1000.14
2019-04-03T11:38:48.179Z,1000.17
2019-04-03T11:39:52.035Z,1000.15
2019-04-03T11:40:50.353Z,1000.16
2019-04-03T11:41:48.137Z,1000.20
2019-04-03T11:42:48.150Z,1000.17
2019-04-03T11:43:48.122Z,1000.19
2019-04-03T11:44:48.138Z,1000.16
2019-04-03T11:45:48.179Z,1000.25
2019-04-03T11:46:48.059Z,1000.19
2019-04-03T11:47:48.069Z,1000.20
2019-04-03T11:48:48.735Z,1000.22
2019-04-03T11:49:48.035Z,1000.21
2019-04-03T11:50:48.043Z,1000.16
2019-04-03T11:51:48.027Z,1000.14
2019-04-03T11:52:48.036Z,1000.17
2019-04-03T11:53:47.994Z,1000.11
2019-04-03T11:54:48.216Z,1000.11
2019-04-03T11:55:47.968Z,1000.06
2019-04-03T11:56:48.003Z,1000.07
2019-04-03T11:57:49.331Z,1000.08
2019-04-03T11:58:47.924Z,1000.16
2019-04-03T11:59:47.928Z,1000.16
2019-04-03T12:00:48.141Z,1000.12
2019-04-03T12:01:47.913Z,1000.12
2019-04-03T12:02:47.982Z,1000.09
2019-04-03T12:03:50.695Z,1000.14
2019-04-03T12:04:47.920Z,1000.13
2019-04-03T12:05:48.291Z,1000.14
2019-04-03T12:06:47.840Z,1000.14
2019-04-03T12:07:47.973Z,1000.12
2019-04-03T12:08:48.089Z,1000.14
2019-04-03T12:09:47.805Z,1000.12
2019-04-03T12:10:47.795Z,1000.12
2019-04-03T12:11:47.971Z,1000.10
2019-04-03T12:12:48.073Z,1000.09
2019-04-03T12:13:48.242Z,1000.10
2019-04-03T12:14:49.133Z,1000.11
2019-04-03T12:15:47.913Z,1000.10